Time;durP1;ratioP1;P1;durP2;ratioP2;P2;SDS_P1;SDS_P2;PMS_P1;PMS_P2;Temp;Humidity;BMP_temperature;BMP_pressure;BME280_temperature;BME280_humidity;BME280_pressure;Samples;Min_cycle;Max_cycle;Signal;HPM_P1;HPM_P2
2022/05/13 00:01:34;;;;;;;13.15;3.20;;;;;;;8.99;73.26;99970.00;5085092;28;20028;-70
2022/05/13 00:03:59;;;;;;;11.70;2.78;;;;;;;9.01;73.30;99976.03;5085397;28;20024;-72
2022/05/13 00:06:25;;;;;;;12.45;2.78;;;;;;;8.98;73.17;99981.25;5085116;28;20040;-70
2022/05/13 00:08:51;;;;;;;17.13;3.50;;;;;;;8.88;73.14;99963.19;5085001;28;20082;-69
2022/05/13 00:11:16;;;;;;;13.05;2.70;;;;;;;8.88;73.25;99973.53;5085558;28;20420;-72
2022/05/13 00:13:42;;;;;;;17.40;2.80;;;;;;;8.87;73.33;99978.72;5085189;28;20229;-69
2022/05/13 00:16:07;;;;;;;17.65;2.95;;;;;;;8.81;73.48;99974.47;5085170;28;20052;-68
2022/05/13 00:18:33;;;;;;;13.52;2.80;;;;;;;8.80;73.59;99975.34;5085068;28;20050;-69
2022/05/13 00:20:59;;;;;;;7.55;2.25;;;;;;;8.79;73.46;99977.06;5084731;28;20025;-70
2022/05/13 00:23:25;;;;;;;14.43;2.28;;;;;;;8.79;73.43;99973.63;5084877;28;20035;-69
2022/05/13 00:25:50;;;;;;;11.43;2.05;;;;;;;8.76;73.38;99968.47;5084649;28;20031;-69
2022/05/13 00:28:16;;;;;;;10.57;2.60;;;;;;;8.77;73.34;99965.03;5084657;28;20017;-70
2022/05/13 00:30:44;;;;;;;9.45;3.03;;;;;;;8.73;73.27;99966.78;5066788;28;20368;-70
2022/05/13 00:33:10;;;;;;;5.75;2.00;;;;;;;8.73;73.32;99965.91;5084561;28;20028;-69
2022/05/13 00:35:36;;;;;;;11.20;2.95;;;;;;;8.68;73.32;99965.94;5084694;28;20487;-70
2022/05/13 00:38:02;;;;;;;14.95;2.95;;;;;;;8.74;73.27;99975.41;5084570;28;20041;-69
2022/05/13 00:40:27;;;;;;;8.75;2.40;;;;;;;8.78;72.97;99975.38;5084425;28;20024;-71
2022/05/13 00:42:59;;;;;;;14.23;3.03;;;;;;;8.78;73.10;99977.97;5066587;28;20059;-70
2022/05/13 00:45:24;;;;;;;8.18;2.67;;;;;;;8.83;73.07;99980.50;5084483;28;20028;-71
2022/05/13 00:47:50;;;;;;;10.57;2.80;;;;;;;8.87;73.04;99979.59;5084294;28;20060;-70
2022/05/13 00:50:16;;;;;;;12.63;2.47;;;;;;;8.90;73.17;99983.88;5084415;28;20024;-70
2022/05/13 00:52:47;;;;;;;11.68;2.63;;;;;;;8.92;73.36;99972.66;5084379;28;20040;-70
2022/05/13 00:55:18;;;;;;;15.18;2.80;;;;;;;9.00;73.43;99980.34;5083809;28;20034;-70
2022/05/13 00:57:46;;;;;;;11.30;2.53;;;;;;;9.01;73.42;99987.25;5084655;28;20028;-70
2022/05/13 01:00:14;;;;;;;15.70;4.10;;;;;;;9.03;73.25;99972.56;5083889;28;20389;-70
2022/05/13 01:02:43;;;;;;;14.18;3.88;;;;;;;9.07;73.38;99981.16;5084124;28;20020;-70
2022/05/13 01:05:10;;;;;;;13.52;3.35;;;;;;;9.10;73.40;99978.56;5083987;28;20074;-70
2022/05/13 01:07:36;;;;;;;21.00;2.88;;;;;;;9.09;73.53;99976.81;5084187;28;20020;-70
2022/05/13 01:10:05;;;;;;;8.02;2.70;;;;;;;9.11;73.36;99981.97;5083981;28;20081;-70
2022/05/13 01:12:38;;;;;;;15.23;2.67;;;;;;;9.08;73.29;99980.28;5084094;28;20028;-70
2022/05/13 01:15:11;;;;;;;13.10;2.78;;;;;;;9.10;73.40;99983.72;5084192;28;20060;-70
2022/05/13 01:20:28;;;;;;;7.57;2.50;;;;;;;9.11;72.85;99975.06;5084095;28;20058;-70
2022/05/13 01:22:58;;;;;;;9.40;2.83;;;;;;;9.07;73.01;99969.94;5083690;28;20028;-70
2022/05/13 01:25:28;;;;;;;10.30;2.45;;;;;;;9.11;72.78;99969.91;5083514;28;20017;-70
2022/05/13 01:27:56;;;;;;;12.70;2.47;;;;;;;9.07;72.50;99973.41;5083671;28;20099;-70
2022/05/13 01:30:27;;;;;;;17.10;2.97;;;;;;;9.02;72.51;99962.22;5083618;28;20016;-70
2022/05/13 01:32:53;;;;;;;10.90;2.70;;;;;;;9.00;72.36;99964.81;5065542;28;20027;-70
2022/05/13 01:35:19;;;;;;;14.20;2.75;;;;;;;9.02;72.38;99967.41;5083498;28;20025;-70
2022/05/13 01:37:45;;;;;;;9.57;2.30;;;;;;;9.00;72.56;99967.41;5083389;28;20112;-70
2022/05/13 01:40:11;;;;;;;8.50;2.72;;;;;;;9.04;72.54;99965.66;5083281;28;20029;-74
2022/05/13 01:42:37;;;;;;;7.32;2.30;;;;;;;9.09;72.52;99976.81;5083224;28;20108;-69
2022/05/13 01:45:04;;;;;;;11.38;2.85;;;;;;;9.10;72.46;99970.78;5083396;28;20028;-70
2022/05/13 01:47:29;;;;;;;11.40;2.15;;;;;;;9.09;72.42;99971.63;5083254;28;20028;-71
2022/05/13 01:49:55;;;;;;;15.55;3.03;;;;;;;9.00;72.77;99963.94;5083231;28;20101;-69
2022/05/13 01:52:21;;;;;;;14.57;3.60;;;;;;;8.97;72.70;99946.72;5083212;28;20028;-70
2022/05/13 01:54:46;;;;;;;17.10;3.35;;;;;;;8.97;72.82;99967.44;5064654;28;20020;-69
2022/05/13 01:57:12;;;;;;;11.48;2.90;;;;;;;8.91;72.85;99970.94;5083224;28;20027;-69
2022/05/13 01:59:38;;;;;;;15.93;3.08;;;;;;;8.89;73.12;99970.09;5065124;28;20025;-70
2022/05/13 02:02:03;;;;;;;8.35;2.60;;;;;;;8.87;73.55;99963.19;5065063;28;20077;-69
2022/05/13 02:04:28;;;;;;;13.70;3.13;;;;;;;8.84;73.72;99958.03;5083330;28;20035;-70
2022/05/13 02:06:54;;;;;;;12.13;3.28;;;;;;;8.83;73.56;99954.63;5082971;28;20055;-70
2022/05/13 02:09:19;;;;;;;13.02;3.70;;;;;;;8.83;73.60;99958.94;5083236;28;20032;-69
2022/05/13 02:11:45;;;;;;;14.80;3.47;;;;;;;8.80;73.89;99967.59;5082570;28;20035;-70
2022/05/13 02:14:13;;;;;;;10.60;2.42;;;;;;;8.75;73.89;99956.41;5083066;28;20031;-70
2022/05/13 02:16:38;;;;;;;9.95;2.60;;;;;;;8.74;74.08;99949.53;5083039;28;20025;-70
2022/05/13 02:19:03;;;;;;;14.35;2.70;;;;;;;8.68;73.98;99953.88;5082922;28;20031;-69
2022/05/13 02:21:29;;;;;;;5.70;2.33;;;;;;;8.67;74.23;99957.31;5083314;28;20373;-69
2022/05/13 02:23:54;;;;;;;14.57;2.88;;;;;;;8.63;74.38;99953.03;5083058;28;20318;-70
2022/05/13 02:26:19;;;;;;;16.80;2.72;;;;;;;8.61;74.40;99948.75;5083064;28;20035;-70
2022/05/13 02:28:46;;;;;;;10.88;2.33;;;;;;;8.58;74.63;99952.22;5083102;28;20084;-70
2022/05/13 02:31:12;;;;;;;9.45;2.35;;;;;;;8.56;74.69;99953.97;5083196;28;20017;-70
2022/05/13 02:33:38;;;;;;;16.52;3.00;;;;;;;8.57;74.73;99953.09;5082719;28;20031;-70
2022/05/13 02:36:05;;;;;;;12.23;3.35;;;;;;;8.52;74.70;99942.75;5083057;28;20024;-71
2022/05/13 02:38:31;;;;;;;13.85;2.63;;;;;;;8.54;74.73;99945.31;5082898;28;20048;-70
2022/05/13 02:41:12;;;;;;;21.17;3.45;;;;;;;8.47;75.12;99938.47;5082815;28;20047;-69
2022/05/13 02:43:52;;;;;;;13.57;2.95;;;;;;;8.47;75.40;99938.47;5082587;28;20074;-69
2022/05/13 02:46:21;;;;;;;12.77;2.53;;;;;;;8.42;75.71;99934.19;5083038;28;20123;-69
2022/05/13 02:48:47;;;;;;;11.43;3.05;;;;;;;8.42;75.92;99939.34;5082839;28;20565;-70
2022/05/13 02:51:14;;;;;;;10.20;2.75;;;;;;;8.37;76.11;99943.69;5082913;28;20070;-70
2022/05/13 02:53:39;;;;;;;13.90;2.92;;;;;;;8.30;76.21;99932.56;5083096;28;20453;-70
2022/05/13 02:56:07;;;;;;;11.25;2.58;;;;;;;8.27;76.38;99936.88;5064768;28;20025;-70
2022/05/13 02:58:33;;;;;;;10.43;2.47;;;;;;;8.21;76.40;99924.00;5082752;28;20145;-71
2022/05/13 03:00:58;;;;;;;16.55;3.03;;;;;;;8.28;76.62;99930.84;5064585;28;20111;-70
2022/05/13 03:03:23;;;;;;;15.70;3.63;;;;;;;8.26;76.60;99933.44;5082641;28;20017;-70
2022/05/13 03:05:48;;;;;;;14.07;4.05;;;;;;;8.25;76.85;99933.44;5082354;28;20465;-70
2022/05/13 03:08:14;;;;;;;12.32;3.13;;;;;;;8.25;76.50;99938.63;5082689;28;20098;-69
2022/05/13 03:10:39;;;;;;;10.63;2.30;;;;;;;8.27;76.54;99935.16;5082265;28;20035;-69
2022/05/13 03:13:07;;;;;;;9.10;2.38;;;;;;;8.12;76.76;99915.41;5082290;28;20030;-69
2022/05/13 03:15:33;;;;;;;14.95;3.05;;;;;;;8.29;76.60;99932.56;5082418;28;20370;-70
2022/05/13 03:17:59;;;;;;;10.45;2.83;;;;;;;8.33;76.64;99931.66;5082416;28;20437;-69
2022/05/13 03:20:25;;;;;;;10.02;2.67;;;;;;;8.40;76.42;99933.31;5082611;28;20024;-69
2022/05/13 03:22:51;;;;;;;12.90;2.88;;;;;;;8.47;76.50;99933.28;5082438;28;20024;-69
2022/05/13 03:25:18;;;;;;;13.93;2.63;;;;;;;8.51;76.42;99929.81;5085772;28;20353;-70
2022/05/13 03:27:43;;;;;;;12.45;2.97;;;;;;;8.57;76.37;99931.53;5086230;28;20080;-69
2022/05/13 03:30:13;;;;;;;12.75;2.55;;;;;;;8.61;76.22;99930.66;5086455;28;20027;-70
2022/05/13 03:32:39;;;;;;;11.80;2.70;;;;;;;8.63;76.46;99934.06;5067719;28;20017;-69
2022/05/13 03:35:08;;;;;;;14.50;3.85;;;;;;;8.68;76.21;99924.53;5086115;28;20031;-68
2022/05/13 03:37:33;;;;;;;15.10;4.25;;;;;;;8.64;76.04;99915.94;5085830;28;20119;-70
2022/05/13 03:39:59;;;;;;;10.00;3.20;;;;;;;8.65;76.29;99911.63;5085627;28;20021;-70
2022/05/13 03:42:25;;;;;;;15.65;3.05;;;;;;;8.75;76.39;99922.75;5085647;28;20028;-71
2022/05/13 03:44:50;;;;;;;5.53;2.42;;;;;;;8.84;76.06;99921.81;5085744;28;20024;-70
2022/05/13 03:47:16;;;;;;;14.93;2.60;;;;;;;8.89;76.10;99925.22;5085832;28;20053;-70
2022/05/13 03:49:42;;;;;;;15.00;2.80;;;;;;;8.99;75.97;99920.81;5085521;28;20025;-71
2022/05/13 03:52:09;;;;;;;9.20;2.80;;;;;;;9.03;75.92;99922.50;5085846;28;20080;-71
2022/05/13 03:54:34;;;;;;;12.27;3.03;;;;;;;9.14;76.08;99927.56;5084994;28;20447;-71
2022/05/13 03:56:59;;;;;;;12.10;2.40;;;;;;;9.22;75.78;99924.91;5085207;28;20028;-69
2022/05/13 03:59:26;;;;;;;12.85;2.85;;;;;;;9.24;75.62;99924.00;5084814;28;20040;-70
2022/05/13 04:01:52;;;;;;;11.80;2.33;;;;;;;9.24;75.95;99926.59;5084790;28;20088;-71
2022/05/13 04:04:21;;;;;;;12.60;2.90;;;;;;;9.24;75.75;99920.56;5066973;28;20081;-70
2022/05/13 04:09:31;;;;;;;13.90;3.00;;;;;;;9.24;75.95;99916.25;5084693;28;20058;-71
2022/05/13 04:17:24;;;;;;;9.60;2.75;;;;;;;9.30;75.40;99920.50;5084929;28;20047;-70
2022/05/13 04:19:50;;;;;;;15.63;3.40;;;;;;;9.36;75.21;99930.78;5066508;28;20025;-69
2022/05/13 04:22:15;;;;;;;10.77;2.80;;;;;;;9.30;74.93;99912.72;5084532;28;20025;-71
2022/05/13 04:24:41;;;;;;;14.57;2.63;;;;;;;9.36;74.81;99925.59;5084477;28;20020;-70
2022/05/13 04:27:06;;;;;;;14.00;2.80;;;;;;;9.35;74.43;99918.72;5084830;28;20054;-70
2022/05/13 04:29:33;;;;;;;17.67;3.78;;;;;;;9.44;74.28;99933.28;5084623;28;20024;-69
2022/05/13 04:31:58;;;;;;;11.68;2.58;;;;;;;9.51;74.32;99928.91;5084425;28;20025;-68
2022/05/13 04:34:24;;;;;;;11.98;2.85;;;;;;;9.59;73.88;99931.38;5084476;28;20027;-69
2022/05/13 04:36:49;;;;;;;16.25;3.85;;;;;;;9.62;73.84;99933.94;5083380;28;20020;-70
2022/05/13 04:39:15;;;;;;;10.35;2.67;;;;;;;9.69;73.41;99934.75;5083744;28;20036;-69
2022/05/13 04:44:24;;;;;;;10.48;2.70;;;;;;;9.84;73.37;99931.94;5084272;28;20027;-69
2022/05/13 04:46:49;;;;;;;12.68;3.53;;;;;;;9.94;72.96;99926.63;5084208;28;20028;-70
2022/05/13 04:49:15;;;;;;;11.63;2.67;;;;;;;10.07;72.75;99933.38;5084350;28;20020;-70
2022/05/13 04:51:41;;;;;;;10.15;2.80;;;;;;;10.14;72.30;99934.16;5084052;28;20376;-69
2022/05/13 04:54:07;;;;;;;10.00;2.28;;;;;;;10.18;72.04;99922.84;5083656;28;20028;-69
2022/05/13 04:56:33;;;;;;;9.30;2.63;;;;;;;10.27;71.94;99927.88;5083968;28;20094;-67
2022/05/13 04:58:59;;;;;;;17.08;2.78;;;;;;;10.34;71.74;99926.06;5084179;28;20032;-77
2022/05/13 05:01:25;;;;;;;14.32;2.72;;;;;;;10.44;71.65;99926.78;5083866;28;20095;-69
2022/05/13 05:03:51;;;;;;;12.38;2.53;;;;;;;10.55;71.18;99926.66;5083486;28;20047;-69
2022/05/13 05:06:18;;;;;;;11.20;2.47;;;;;;;10.65;71.00;99927.38;5083665;28;20024;-68
2022/05/13 05:08:44;;;;;;;9.00;2.35;;;;;;;10.76;70.59;99932.38;5083526;28;20570;-64
2022/05/13 05:11:12;;;;;;;15.73;4.18;;;;;;;10.82;70.13;99937.47;5083232;28;20016;-62
2022/05/13 05:13:41;;;;;;;22.35;3.85;;;;;;;10.92;70.16;99940.75;5083413;28;20032;-63
2022/05/13 05:16:07;;;;;;;13.48;3.28;;;;;;;11.11;69.48;99940.41;5083247;28;20059;-63
2022/05/13 05:18:34;;;;;;;16.67;3.78;;;;;;;11.32;68.31;99931.38;5083276;28;20043;-63
2022/05/13 05:21:00;;;;;;;11.48;3.05;;;;;;;11.58;67.12;99940.38;5083426;28;20025;-68
2022/05/13 05:23:28;;;;;;;11.07;3.75;;;;;;;11.87;65.93;99944.13;5083307;28;20317;-64
2022/05/13 05:25:54;;;;;;;17.58;2.80;;;;;;;12.01;65.10;99945.59;5082970;28;20024;-64
2022/05/13 05:28:19;;;;;;;13.75;3.13;;;;;;;12.01;65.49;99943.84;5083383;28;20032;-63
2022/05/13 05:30:45;;;;;;;13.93;3.88;;;;;;;12.13;65.89;99950.56;5083368;28;20020;-69
2022/05/13 05:33:11;;;;;;;19.38;3.00;;;;;;;12.10;64.94;99942.81;5083170;28;20568;-69
2022/05/13 05:35:36;;;;;;;10.57;2.20;;;;;;;12.05;64.51;99938.56;5083133;28;20106;-69
2022/05/13 05:38:02;;;;;;;14.98;2.63;;;;;;;11.81;64.26;99940.81;5065030;28;20049;-69
2022/05/13 05:40:28;;;;;;;9.15;2.35;;;;;;;11.61;65.25;99942.94;5082825;28;20020;-70
2022/05/13 05:42:53;;;;;;;14.95;2.60;;;;;;;11.48;65.33;99951.88;5083102;28;20472;-70
2022/05/13 05:45:20;;;;;;;11.85;2.67;;;;;;;11.33;65.94;99958.19;5065234;28;20346;-70
2022/05/13 05:47:47;;;;;;;15.65;2.88;;;;;;;11.27;66.49;99954.00;5082360;28;20020;-70
2022/05/13 05:50:16;;;;;;;18.75;2.75;;;;;;;11.18;66.71;99952.44;5083225;28;20021;-68
2022/05/13 05:52:41;;;;;;;9.98;2.33;;;;;;;10.98;67.13;99947.56;5083026;28;20074;-69
2022/05/13 05:57:57;;;;;;;14.18;2.88;;;;;;;10.82;67.63;99957.38;5083492;28;20092;-70
2022/05/13 06:00:23;;;;;;;16.17;2.73;;;;;;;10.73;68.04;99961.84;5083483;28;20020;-71
2022/05/13 06:02:48;;;;;;;13.85;2.83;;;;;;;10.68;68.25;99960.19;5083279;28;20020;-69
2022/05/13 06:05:13;;;;;;;23.73;3.63;;;;;;;10.56;68.65;99933.53;5082932;28;20071;-70
2022/05/13 06:07:39;;;;;;;12.65;2.42;;;;;;;10.67;68.60;99954.16;5083015;28;20033;-70
2022/05/13 06:10:05;;;;;;;10.07;2.40;;;;;;;10.68;68.47;99940.28;5082742;28;20012;-70
2022/05/13 06:12:30;;;;;;;14.10;2.85;;;;;;;10.72;68.36;99956.69;5082793;28;20030;-68
2022/05/13 06:14:55;;;;;;;11.05;3.67;;;;;;;10.58;68.74;99955.16;5083056;28;20024;-70
2022/05/13 06:17:21;;;;;;;14.73;3.10;;;;;;;10.49;68.97;99961.34;5082903;28;20029;-68
2022/05/13 06:19:46;;;;;;;22.75;3.53;;;;;;;10.34;69.79;99952.00;5082924;28;20492;-70
2022/05/13 06:22:11;;;;;;;19.50;3.22;;;;;;;10.16;70.58;99950.53;5064870;28;20036;-69
2022/05/13 06:24:37;;;;;;;18.13;3.90;;;;;;;9.99;71.50;99961.16;5082993;28;20021;-69
2022/05/13 06:27:03;;;;;;;22.33;3.45;;;;;;;9.77;72.76;99961.44;5083123;28;20023;-69
2022/05/13 06:29:28;;;;;;;29.67;5.30;;;;;;;9.59;73.35;99963.34;5082912;28;20103;-68
2022/05/13 06:31:54;;;;;;;14.95;3.53;;;;;;;9.52;74.34;99970.34;5082738;28;20021;-70
2022/05/13 06:34:21;;;;;;;17.58;3.90;;;;;;;9.42;75.39;99966.16;5082717;28;20081;-70
2022/05/13 06:36:47;;;;;;;10.35;3.90;;;;;;;9.32;76.17;99969.69;5082537;28;20587;-71
2022/05/13 06:39:13;;;;;;;19.65;3.80;;;;;;;9.23;77.11;99971.53;5082122;28;20102;-70
2022/05/13 06:41:40;;;;;;;12.80;3.38;;;;;;;9.18;78.09;99973.28;5082593;28;20028;-70
2022/05/13 06:44:06;;;;;;;22.65;4.30;;;;;;;9.14;78.32;99982.81;5082393;28;20017;-70
2022/05/13 06:46:31;;;;;;;11.32;3.55;;;;;;;9.13;78.62;99980.25;5082832;28;20021;-71
2022/05/13 06:48:58;;;;;;;16.80;4.55;;;;;;;9.20;78.79;99983.63;5082877;28;20024;-71
2022/05/13 06:51:24;;;;;;;10.02;2.92;;;;;;;9.24;79.52;99977.53;5082694;28;20084;-71
2022/05/13 06:53:50;;;;;;;21.17;3.50;;;;;;;9.30;79.97;99986.13;5064603;28;20037;-72
2022/05/13 06:56:15;;;;;;;11.70;3.78;;;;;;;9.36;80.18;99979.16;5064597;28;20033;-71
2022/05/13 06:58:40;;;;;;;17.92;3.40;;;;;;;9.41;80.55;99977.38;5083622;28;20028;-70
2022/05/13 07:01:06;;;;;;;14.32;3.67;;;;;;;9.51;80.80;99978.13;5068475;28;20021;-70
2022/05/13 07:03:31;;;;;;;14.05;3.72;;;;;;;9.65;80.80;99971.06;5086267;28;20036;-70
2022/05/13 07:05:56;;;;;;;9.23;3.20;;;;;;;9.77;80.85;99970.06;5086250;28;20024;-70
2022/05/13 07:08:22;;;;;;;16.50;3.60;;;;;;;9.95;81.31;99975.91;5086239;28;20082;-69
2022/05/13 07:10:48;;;;;;;13.43;3.10;;;;;;;10.16;81.52;99969.56;5085963;28;20051;-71
2022/05/13 07:13:15;;;;;;;23.48;5.68;;;;;;;10.32;81.22;99964.16;5085909;28;20031;-69
2022/05/13 07:15:42;;;;;;;17.67;3.42;;;;;;;10.55;81.26;99968.19;5085731;28;20084;-69
2022/05/13 07:18:08;;;;;;;11.57;3.35;;;;;;;10.75;81.40;99964.41;5085998;28;20024;-70
2022/05/13 07:20:33;;;;;;;15.75;3.50;;;;;;;10.94;81.08;99964.97;5085979;28;20061;-70
2022/05/13 07:22:59;;;;;;;11.30;3.60;;;;;;;11.08;81.38;99966.47;5086148;28;20028;-70
2022/05/13 07:25:26;;;;;;;13.15;2.85;;;;;;;11.27;81.04;99970.44;5085801;28;20017;-69
2022/05/13 07:27:51;;;;;;;11.80;3.22;;;;;;;11.53;81.00;99970.84;5085901;28;20040;-70
2022/05/13 07:30:17;;;;;;;11.07;2.60;;;;;;;11.55;78.78;99965.63;5085842;28;20017;-69
2022/05/13 07:32:42;;;;;;;11.65;2.95;;;;;;;11.46;78.26;99953.63;5085739;28;20032;-70
2022/05/13 07:35:08;;;;;;;16.90;3.72;;;;;;;11.64;78.42;99962.81;5085762;28;20362;-70
2022/05/13 07:37:35;;;;;;;13.93;4.00;;;;;;;11.78;77.41;99955.59;5085654;28;20048;-71
2022/05/13 07:42:44;;;;;;;9.38;2.80;;;;;;;12.11;75.45;99954.94;5085727;28;20047;-71
2022/05/13 07:45:10;;;;;;;9.75;2.83;;;;;;;12.30;75.26;99951.06;5085810;28;20028;-70
2022/05/13 07:47:36;;;;;;;8.27;2.97;;;;;;;12.43;73.38;99956.84;5085472;28;20084;-70
2022/05/13 07:50:03;;;;;;;13.98;3.25;;;;;;;12.42;72.37;99958.59;5067331;28;20051;-70
2022/05/13 07:52:28;;;;;;;10.88;2.70;;;;;;;12.53;72.79;99960.94;5085655;28;20031;-70
2022/05/13 07:54:53;;;;;;;12.80;2.75;;;;;;;12.59;72.38;99952.97;5085367;28;20029;-71
2022/05/13 07:57:19;;;;;;;9.50;2.70;;;;;;;12.81;71.91;99965.47;5085367;28;20025;-71
2022/05/13 08:02:29;;;;;;;15.98;2.90;;;;;;;13.31;70.37;99964.19;5085455;28;20095;-70
2022/05/13 08:04:54;;;;;;;14.95;2.72;;;;;;;13.46;71.24;99956.84;5085208;28;20025;-71
2022/05/13 08:07:20;;;;;;;14.40;3.63;;;;;;;13.58;68.74;99963.50;5085118;28;20069;-71
2022/05/13 08:09:45;;;;;;;13.93;2.63;;;;;;;13.71;67.86;99964.00;5084195;28;20021;-71
2022/05/13 08:12:11;;;;;;;9.70;2.45;;;;;;;14.25;66.59;99951.09;5084484;28;20062;-70
2022/05/13 08:14:37;;;;;;;8.95;2.50;;;;;;;14.57;66.74;99944.00;5085151;28;20044;-70
2022/05/13 08:17:03;;;;;;;13.68;3.28;;;;;;;14.66;65.58;99953.31;5084985;28;20029;-70
2022/05/13 08:19:29;;;;;;;11.50;2.50;;;;;;;14.73;66.61;99954.81;5084999;28;20025;-70
2022/05/13 08:21:54;;;;;;;7.53;2.83;;;;;;;14.73;64.65;99959.19;5084887;28;20431;-70
2022/05/13 08:24:19;;;;;;;7.78;2.70;;;;;;;14.46;62.14;99956.56;5084599;28;20059;-70
2022/05/13 08:26:45;;;;;;;9.88;2.67;;;;;;;14.19;62.93;99954.78;5084774;28;20088;-70
2022/05/13 08:29:10;;;;;;;11.38;2.92;;;;;;;13.86;62.54;99962.72;5084672;28;20032;-70
2022/05/13 08:31:35;;;;;;;7.00;2.70;;;;;;;13.55;63.47;99968.81;5084755;28;20070;-70
2022/05/13 08:34:01;;;;;;;8.95;2.92;;;;;;;13.41;64.00;99962.19;5084189;28;20020;-70
2022/05/13 08:36:26;;;;;;;11.45;2.72;;;;;;;13.32;64.66;99958.06;5083101;28;20108;-70
2022/05/13 08:38:52;;;;;;;10.60;2.88;;;;;;;13.49;65.26;99969.81;5083834;28;20055;-70
2022/05/13 08:41:25;;;;;;;11.48;3.03;;;;;;;13.63;64.08;99961.63;5084166;28;20111;-71
2022/05/13 08:44:00;;;;;;;9.80;2.78;;;;;;;13.63;63.97;99964.22;5082849;28;20037;-71
2022/05/13 08:46:37;;;;;;;9.65;2.30;;;;;;;14.07;62.56;99960.38;5084181;28;20025;-71
2022/05/13 08:49:26;;;;;;;7.65;2.40;;;;;;;14.19;61.56;99956.53;5083564;28;20029;-71
2022/05/13 08:51:57;;;;;;;10.95;2.95;;;;;;;14.27;62.39;99959.75;5083804;28;20036;-71
2022/05/13 08:54:26;;;;;;;9.87;2.90;;;;;;;14.80;63.05;99950.28;5083625;28;20046;-71
2022/05/13 08:56:59;;;;;;;8.90;2.70;;;;;;;15.10;60.12;99952.75;5083619;28;20048;-71
2022/05/13 08:59:43;;;;;;;9.38;2.78;;;;;;;15.19;59.67;99953.34;5083601;28;20464;-71
2022/05/13 09:02:30;;;;;;;7.07;2.17;;;;;;;14.99;57.18;99949.66;5083468;28;20028;-71
2022/05/13 09:05:02;;;;;;;14.70;2.60;;;;;;;14.64;57.68;99960.34;5083569;28;20020;-71
2022/05/13 09:07:27;;;;;;;7.30;2.80;;;;;;;14.33;57.98;99959.56;5083861;28;20047;-71
2022/05/13 09:09:58;;;;;;;8.43;3.08;;;;;;;14.19;59.38;99960.00;5083351;28;20092;-72
2022/05/13 09:12:51;;;;;;;11.93;3.33;;;;;;;14.24;59.67;99962.47;5065350;28;20020;-73
2022/05/13 09:15:23;;;;;;;13.13;3.80;;;;;;;13.97;60.38;99963.28;5083562;28;20209;-72
2022/05/13 09:18:03;;;;;;;10.23;4.03;;;;;;;13.77;61.56;99971.66;5083444;28;20248;-72
2022/05/13 09:20:28;;;;;;;13.30;2.95;;;;;;;13.54;61.80;99967.97;5083395;28;20021;-72
2022/05/13 09:22:58;;;;;;;9.32;3.33;;;;;;;13.34;62.19;99977.16;5083009;28;20111;-72
2022/05/13 09:25:54;;;;;;;13.75;4.47;;;;;;;13.14;63.09;99970.72;5083117;28;20023;-71
2022/05/13 09:28:20;;;;;;;12.63;4.18;;;;;;;13.19;64.24;99967.13;5083352;28;20016;-73
2022/05/13 09:30:53;;;;;;;13.93;4.40;;;;;;;13.56;64.34;99960.94;5065273;28;20074;-70
2022/05/13 09:33:19;;;;;;;13.48;4.40;;;;;;;13.97;63.14;99955.44;5082850;28;20032;-71
2022/05/13 09:35:45;;;;;;;8.93;3.58;;;;;;;13.92;61.95;99957.31;5064995;28;20024;-71
2022/05/13 09:38:19;;;;;;;12.88;4.93;;;;;;;13.68;62.13;99953.66;5082655;28;20040;-70
2022/05/13 09:40:57;;;;;;;16.67;4.68;;;;;;;13.50;63.30;99950.66;5082708;28;20062;-71
2022/05/13 09:43:50;;;;;;;8.65;4.35;;;;;;;13.34;64.08;99943.25;5082979;28;20138;-71
2022/05/13 09:46:35;;;;;;;12.25;5.30;;;;;;;13.06;64.26;99945.75;5082907;28;20020;-71
2022/05/13 09:49:16;;;;;;;12.68;5.65;;;;;;;13.09;65.87;99954.34;5082708;28;20095;-70
2022/05/13 09:51:53;;;;;;;12.00;5.13;;;;;;;13.46;65.20;99943.81;5082818;28;20095;-71
2022/05/13 09:54:31;;;;;;;15.48;4.88;;;;;;;13.97;63.75;99954.56;5082300;28;20452;-71
2022/05/13 09:57:33;;;;;;;13.90;6.15;;;;;;;14.15;62.76;99941.88;5064733;28;20024;-72
2022/05/13 10:00:16;;;;;;;16.95;5.68;;;;;;;13.98;63.74;99933.66;5000520;28;20031;-71
2022/05/13 10:02:47;;;;;;;12.27;5.88;;;;;;;13.91;63.52;99915.63;4984143;28;20027;-71
2022/05/13 10:05:23;;;;;;;17.20;5.78;;;;;;;13.75;63.95;99926.53;5000432;28;20041;-71
2022/05/13 10:07:51;;;;;;;13.07;5.72;;;;;;;13.82;64.85;99933.25;5000587;28;20557;-71
2022/05/13 10:16:05;;;;;;;7.95;4.13;;;;;;;14.34;64.20;99934.31;5000263;28;20104;-72
2022/05/13 10:18:33;;;;;;;10.35;4.57;;;;;;;14.95;60.87;99922.75;5000429;28;20030;-70
2022/05/13 10:21:04;;;;;;;12.43;5.82;;;;;;;15.22;59.82;99934.94;5000310;28;20122;-71
2022/05/13 10:23:41;;;;;;;14.25;5.57;;;;;;;15.28;59.12;99931.22;4983933;28;20088;-71
2022/05/13 10:26:11;;;;;;;16.27;5.72;;;;;;;15.31;59.33;99916.28;4999968;28;20030;-72
2022/05/13 10:29:10;;;;;;;15.95;5.90;;;;;;;15.32;58.08;99930.22;5000130;28;20483;-70
2022/05/13 10:31:43;;;;;;;18.00;6.22;;;;;;;15.12;58.93;99929.16;4984015;28;20022;-71
2022/05/13 10:34:35;;;;;;;13.45;5.32;;;;;;;15.02;59.36;99928.63;5049037;28;20492;-70
2022/05/13 10:37:25;;;;;;;15.68;6.40;;;;;;;14.71;59.48;99933.09;5086470;28;20039;-72
2022/05/13 10:39:59;;;;;;;13.95;6.15;;;;;;;14.63;60.46;99929.91;5068235;28;20055;-71
2022/05/13 10:42:35;;;;;;;20.10;7.13;;;;;;;14.53;60.36;99931.09;5086309;28;20062;-71
2022/05/13 10:45:17;;;;;;;15.45;6.40;;;;;;;14.48;60.78;99926.91;5086492;28;20084;-71
2022/05/13 10:47:48;;;;;;;15.38;6.78;;;;;;;14.59;61.13;99933.50;5086319;28;20027;-71
2022/05/13 10:50:17;;;;;;;16.40;7.28;;;;;;;14.66;60.98;99934.16;5086191;28;20045;-71
2022/05/13 10:53:05;;;;;;;13.55;5.70;;;;;;;14.74;60.84;99934.78;5085860;28;20048;-71
2022/05/13 10:55:59;;;;;;;18.85;5.88;;;;;;;14.87;60.50;99936.09;5085980;28;20105;-70
2022/05/13 10:58:57;;;;;;;17.50;6.30;;;;;;;14.94;60.41;99941.09;5086291;28;20105;-71
2022/05/13 11:01:28;;;;;;;14.23;6.93;;;;;;;14.83;59.38;99939.72;5067903;28;20397;-70
2022/05/13 11:04:05;;;;;;;19.77;7.15;;;;;;;14.54;60.17;99943.25;5067930;28;20123;-71
2022/05/13 11:06:33;;;;;;;14.48;6.88;;;;;;;14.29;60.52;99939.69;5086193;28;20020;-71
2022/05/13 11:09:18;;;;;;;16.48;7.05;;;;;;;14.09;61.52;99941.16;5085931;28;20062;-71
2022/05/13 11:11:45;;;;;;;13.02;6.13;;;;;;;13.98;61.96;99933.66;5067727;28;20088;-71
2022/05/13 11:14:54;;;;;;;17.88;7.38;;;;;;;13.90;62.61;99943.47;5085767;28;20488;-70
2022/05/13 11:17:37;;;;;;;11.32;5.88;;;;;;;14.02;62.17;99923.97;5047052;28;20032;-71
2022/05/13 11:20:02;;;;;;;14.40;5.60;;;;;;;14.05;61.14;99936.94;5085491;28;20051;-71
2022/05/13 11:22:30;;;;;;;14.13;5.82;;;;;;;14.01;61.71;99935.31;5085538;28;20024;-71
2022/05/13 11:27:43;;;;;;;10.60;5.05;;;;;;;13.57;60.46;99936.59;5085637;28;20043;-71
2022/05/13 11:30:14;;;;;;;11.32;4.45;;;;;;;13.20;61.07;99934.94;5085499;28;20088;-70
2022/05/13 11:32:44;;;;;;;12.70;4.95;;;;;;;13.09;62.00;99959.56;5085383;28;20062;-70
2022/05/13 11:35:40;;;;;;;15.43;6.60;;;;;;;12.83;63.90;99965.41;5085198;28;20104;-70
2022/05/13 11:38:15;;;;;;;16.52;7.47;;;;;;;12.59;65.49;99967.72;5085333;28;20059;-72
2022/05/13 11:40:50;;;;;;;18.95;7.70;;;;;;;12.44;66.70;99971.56;5084967;28;20041;-68
2022/05/13 11:43:25;;;;;;;20.50;9.63;;;;;;;12.10;69.08;99974.03;5085440;28;20079;-69
2022/05/13 11:45:56;;;;;;;13.07;7.90;;;;;;;11.76;70.19;99978.19;5085250;28;20452;-70
2022/05/13 11:48:27;;;;;;;10.87;5.53;;;;;;;11.48;71.13;99973.53;5085384;28;20029;-69
2022/05/13 11:51:02;;;;;;;7.78;3.55;;;;;;;11.12;70.17;99965.50;5085201;28;20045;-69
2022/05/13 11:53:46;;;;;;;5.95;2.80;;;;;;;10.76;69.78;99932.38;5085376;28;20161;-70
2022/05/13 11:56:26;;;;;;;5.75;2.83;;;;;;;10.43;69.43;99924.22;5084863;28;20032;-69
2022/05/13 11:59:12;;;;;;;4.93;2.70;;;;;;;10.13;70.72;99917.72;5085091;28;20521;-69
2022/05/13 12:01:43;;;;;;;5.90;3.13;;;;;;;10.30;71.64;99934.78;5066991;28;20027;-70
2022/05/13 12:04:12;;;;;;;8.13;2.88;;;;;;;10.51;72.56;99933.63;5085049;28;20096;-68
2022/05/13 12:06:52;;;;;;;8.57;3.08;;;;;;;10.72;73.15;99941.09;5084985;28;20020;-69
2022/05/13 12:09:26;;;;;;;6.80;2.70;;;;;;;10.96;73.27;99931.19;5084740;28;20024;-70
2022/05/13 12:12:07;;;;;;;4.35;2.58;;;;;;;11.13;73.05;99936.91;5084890;28;20457;-69